Data for 04/01/2008

Time Sea-Level Adjusted Pressure Absolute Pressure Temperature Relative Humidity Dew Point   
(mb) (inHg) (mb) (inHg) (C) (F) (%) (C) (F)
00:05 1021 30.15 850 25.1 -7.2 19 80 -10.1 13.8
00:10 1021 30.15 850 25.1 -7.3 18.9 80 -10.2 13.6
00:15 1021 30.15 850 25.1 -7.2 19 79 -10.2 13.6
00:20 1021 30.15 850 25.1 -7.2 19 79 -10.3 13.5
00:25 1021 30.15 850 25.1 -7.3 18.9 79 -10.3 13.5
00:30 1021 30.15 850 25.1 -7.4 18.6 80 -10.3 13.4
00:35 1021 30.15 850 25.1 -7.6 18.3 80 -10.4 13.2
00:40 1021 30.15 850 25.1 -7.7 18.2 81 -10.5 13.1
00:45 1021 30.15 850 25.1 -7.9 17.9 81 -10.6 13
00:50 1021 30.15 850 25.1 -7.9 17.7 81 -10.6 12.9
00:55 1021 30.15 850 25.1 -7.9 17.7 81 -10.6 12.8
01:00 1021 30.15 850 25.1 -8 17.7 81 -10.7 12.8
01:05 1021 30.15 850 25.1 -8.1 17.5 81 -10.7 12.7
01:10 1021 30.15 850 25.1 -8.1 17.5 82 -10.7 12.7
01:15 1021 30.15 850 25.1 -8.1 17.4 82 -10.7 12.7
01:20 1021 30.15 850 25.1 -8.2 17.3 82 -10.8 12.6
01:25 1021 30.15 850 25.1 -8.1 17.5 82 -10.7 12.7
01:30 1021 30.15 850 25.1 -8 17.7 81 -10.7 12.8
01:35 1021 30.15 850 25.1 -7.8 17.9 80 -10.7 12.8
01:40 1021 30.15 850 25.1 -7.8 17.9 80 -10.7 12.8
01:45 1021 30.15 850 25.1 -8 17.7 80 -10.8 12.6
01:50 1021 30.15 850 25.1 -8.1 17.4 81 -10.9 12.4
01:55 1021 30.15 850 25.1 -8.1 17.4 81 -10.9 12.5
02:00 1021 30.15 850 25.1 -7.7 18.1 79 -10.8 12.5
02:05 1021 30.15 850 25.1 -7.5 18.5 78 -10.6 12.9
02:10 1021 30.15 850 25.1 -7.8 18 79 -10.9 12.5
02:15 1021 30.15 850 25.1 -8.2 17.2 80 -11.2 11.9
02:20 1021 30.15 850 25.1 -8.4 16.8 80 -11.3 11.7
02:25 1021 30.15 850 25.1 -8.6 16.5 81 -11.3 11.6
02:30 1021 30.15 850 25.1 -8.8 16.2 81 -11.5 11.4
02:35 1021 30.15 850 25.1 -8.9 16.1 81 -11.5 11.2
02:40 1021 30.15 850 25.1 -9.1 15.7 82 -11.7 11
02:45 1021 30.15 850 25.1 -9.1 15.6 82 -11.7 10.9
02:50 1021 30.15 850 25.1 -9.1 15.5 82 -11.7 11
02:55 1021 30.15 850 25.1 -8.8 16.1 81 -11.5 11.4
03:00 1021 30.15 850 25.1 -8.7 16.3 81 -11.4 11.4
03:05 1021 30.15 850 25.1 -8.7 16.3 80 -11.5 11.3
03:10 1021 30.15 850 25.1 -8.8 16.2 80 -11.6 11.2
03:15 1021 30.15 850 25.1 -8.6 16.6 80 -11.4 11.5
03:20 1021 30.15 850 25.1 -8.4 16.8 80 -11.3 11.6
03:25 1021 30.15 850 25.1 -8.5 16.7 80 -11.4 11.5
03:30 1021 30.15 850 25.1 -8.6 16.5 80 -11.4 11.4
03:35 1021 30.15 850 25.1 -8.6 16.6 80 -11.4 11.5
03:40 1020 30.12 850 25.1 -8.3 17 80 -11.2 11.8
03:45 1020 30.12 849 25.07 -8.2 17.3 80 -11 12.1
03:50 1020 30.12 850 25.1 -8.2 17.2 80 -11.1 12
03:55 1020 30.12 850 25.1 -8.3 17 80 -11.2 11.9
04:00 1020 30.12 850 25.1 -8.3 17 80 -11.2 11.8
04:05 1020 30.12 850 25.1 -8.3 17.1 80 -11.1 11.9
04:10 1020 30.12 850 25.1 -8.1 17.5 79 -11.1 12.1
04:15 1020 30.12 850 25.1 -7.9 17.8 79 -10.9 12.3
04:20 1020 30.12 850 25.1 -7.9 17.8 79 -10.9 12.3
04:25 1020 30.12 850 25.1 -8 17.6 79 -11 12.1
04:30 1020 30.12 850 25.1 -8 17.6 79 -11 12.3
04:35 1020 30.12 850 25.1 -7.8 17.9 79 -10.9 12.4
04:40 1020 30.12 850 25.1 -7.8 18 79 -10.8 12.6
04:45 1020 30.12 850 25.1 -7.8 18 79 -10.8 12.6
04:50 1020 30.12 850 25.1 -7.8 18.1 80 -10.7 12.8
04:55 1020 30.12 850 25.1 -7.7 18.1 80 -10.6 13
05:00 1020 30.12 850 25.1 -7.7 18.1 81 -10.5 13.1
05:05 1020 30.12 850 25.1 -7.9 17.9 81 -10.5 13
05:10 1020 30.12 850 25.1 -7.9 17.9 81 -10.5 13.1
05:15 1020 30.12 850 25.1 -7.8 18 81 -10.4 13.2
05:20 1020 30.12 850 25.1 -7.8 17.9 81 -10.5 13
05:25 1020 30.12 850 25.1 -7.8 17.9 81 -10.6 12.9
05:30 1020 30.12 850 25.1 -7.8 18.1 80 -10.6 12.9
05:35 1020 30.12 849 25.07 -7.6 18.2 80 -10.5 13
05:40 1020 30.12 849 25.07 -7.6 18.4 81 -10.3 13.4
05:45 1020 30.12 849 25.07 -7.5 18.6 81 -10.2 13.7
05:50 1020 30.12 849 25.07 -7.4 18.8 81 -10.1 13.8
05:55 1020 30.12 849 25.07 -7.4 18.7 81 -10.1 13.7
06:00 1020 30.12 849 25.07 -7.4 18.6 81 -10.1 13.7
06:05 1020 30.12 849 25.07 -7.6 18.4 81 -10.3 13.5
06:10 1020 30.12 849 25.07 -7.8 18 82 -10.4 13.4
06:15 1020 30.12 849 25.07 -7.8 17.9 82 -10.4 13.3
06:20 1020 30.12 849 25.07 -7.9 17.8 83 -10.3 13.4
06:25 1020 30.12 849 25.07 -7.7 18.2 82 -10.2 13.7
06:30 1020 30.12 849 25.07 -7.7 18.2 83 -10.2 13.7
06:35 1020 30.12 849 25.07 -7.7 18.2 83 -10.2 13.7
06:40 1020 30.12 849 25.07 -7.7 18.1 82 -10.2 13.6
06:45 1020 30.12 849 25.07 -8 17.7 82 -10.5 13.1
06:50 1020 30.12 849 25.07 -8.1 17.4 82 -10.6 12.9
06:55 1020 30.12 849 25.07 -8.2 17.2 83 -10.6 12.8
07:00 1020 30.12 849 25.07 -8.4 16.8 83 -10.8 12.6
07:05 1020 30.12 849 25.07 -8.6 16.4 84 -10.9 12.4
07:10 1020 30.12 849 25.07 -8.7 16.4 84 -10.9 12.3
07:15 1020 30.12 849 25.07 -9 15.9 85 -11.1 12
07:20 1020 30.12 849 25.07 -9.1 15.7 85 -11.2 11.8
07:25 1020 30.12 849 25.07 -9.3 15.2 85 -11.4 11.5
07:30 1020 30.12 849 25.07 -9.5 14.9 85 -11.5 11.3
07:35 1020 30.12 849 25.07 -9.5 14.9 86 -11.4 11.5
07:40 1020 30.12 849 25.07 -9.1 15.6 87 -11 12.2
07:45 1020 30.12 849 25.07 -8.7 16.4 86 -10.6 13
07:50 1020 30.12 849 25.07 -8.4 16.8 85 -10.5 13.1
07:55 1020 30.12 849 25.07 -8.4 17 85 -10.5 13.2
08:00 1020 30.12 849 25.07 -8.3 17 84 -10.5 13.1
08:05 1020 30.12 849 25.07 -8.2 17.2 83 -10.6 12.9
08:10 1020 30.12 849 25.07 -8.2 17.2 83 -10.6 13
08:15 1020 30.12 849 25.07 -7.9 17.9 83 -10.3 13.5
08:20 1020 30.12 849 25.07 -7.5 18.5 82 -10.1 13.8
08:25 1020 30.12 849 25.07 -7.3 18.8 82 -9.9 14.2
08:30 1020 30.12 849 25.07 -6.9 19.5 81 -9.6 14.7
08:35 1020 30.12 849 25.07 -6.5 20.3 80 -9.3 15.2
08:40 1020 30.12 849 25.07 -5.9 21.3 78 -9.1 15.6
08:45 1020 30.12 849 25.07 -5.5 22 77 -9 15.9
08:50 1020 30.12 849 25.07 -5.5 22.1 76 -9 15.7
08:55 1020 30.12 849 25.07 -5.3 22.5 75 -9.1 15.6
09:00 1020 30.12 849 25.07 -5.4 22.4 75 -9.1 15.6
09:05 1020 30.12 849 25.07 -5.1 22.8 73 -9.2 15.5
09:10 1020 30.12 849 25.07 -4.8 23.3 72 -9.2 15.4
09:15 1020 30.12 849 25.07 -4.7 23.5 71 -9.2 15.4
09:20 1020 30.12 849 25.07 -4.8 23.4 71 -9.3 15.3
09:25 1020 30.12 849 25.07 -4.6 23.8 69 -9.3 15.2
09:30 1020 30.12 849 25.07 -4.4 24.2 70 -9 15.8
09:35 1020 30.12 849 25.07 -3.8 25.2 68 -8.8 16.1
09:40 1020 30.12 849 25.07 -3.6 25.5 68 -8.6 16.4
09:45 1020 30.12 849 25.07 -3.5 25.7 68 -8.5 16.7
09:50 1020 30.12 849 25.07 -2.5 27.5 64 -8.5 16.8
09:55 1020 30.12 849 25.07 -2.2 28 63 -8.3 17.1
10:00 1020 30.12 849 25.07 -1.7 29 61 -8.3 17.1
10:05 1020 30.12 849 25.07 -1.8 28.8 59 -8.8 16.2
10:10 1020 30.12 849 25.07 -2.3 27.9 60 -8.9 15.9
10:15 1020 30.12 849 25.07 -1.1 29.9 57 -8.6 16.6
10:20 1020 30.12 849 25.07 -1.3 29.6 58 -8.6 16.6
10:25 1020 30.12 849 25.07 -2.1 28.2 60 -8.9 15.9
10:30 1020 30.12 849 25.07 -2 28.5 59 -9 15.9
10:35 1020 30.12 849 25.07 -1.6 29 58 -8.9 15.9
10:40 1020 30.12 849 25.07 -1 30.2 56 -8.7 16.3
10:45 1020 30.12 849 25.07 -0.3 31.4 54 -8.6 16.5
10:50 1020 30.12 849 25.07 -0.2 31.6 51 -9.1 15.5
10:55 1020 30.12 849 25.07 0.1 32.3 52 -8.5 16.7
11:00 1020 30.12 849 25.07 1 33.9 47 -9.1 15.7
11:05 1020 30.12 849 25.07 0.3 32.5 47 -9.7 14.5
11:10 1020 30.12 849 25.07 0.5 32.9 48 -9.4 15.1
11:15 1020 30.12 849 25.07 0.5 32.8 49 -9.1 15.5
11:20 1020 30.12 849 25.07 -0.9 30.4 53 -9.4 15.1
11:25 1019 30.09 849 25.07 -0.6 30.9 51 -9.6 14.8
11:30 1019 30.09 849 25.07 0.7 33.2 48 -9.2 15.4
11:35 1019 30.09 849 25.07 0.8 33.5 46 -9.4 15
11:40 1019 30.09 849 25.07 1.3 34.3 43 -9.9 14.3
11:45 1019 30.09 849 25.07 0.6 33.2 47 -9.4 15.1
11:50 1019 30.09 848 25.04 0.6 33.1 42 -11 12.2
11:55 1019 30.09 848 25.04 1.2 34.1 42 -10.4 13.3
12:00 1019 30.09 848 25.04 1 33.9 41 -10.8 12.6
12:05 1019 30.09 848 25.04 1.2 34.2 41 -10.7 12.7
12:10 1019 30.09 848 25.04 2.2 36 39 -10.2 13.7
12:15 1019 30.09 848 25.04 2.6 36.7 38 -10.3 13.4
12:20 1019 30.09 848 25.04 2.6 36.6 33 -12.1 10.3
12:25 1019 30.09 848 25.04 2.3 36.2 33 -12.3 9.9
12:30 1019 30.09 848 25.04 2.8 37.1 31 -12.8 9
12:35 1019 30.09 848 25.04 2.6 36.7 31 -13 8.5
12:40 1019 30.09 848 25.04 1.9 35.5 30 -13.7 7.3
12:45 1019 30.09 848 25.04 2.5 36.5 30 -13.4 7.9
12:50 1019 30.09 848 25.04 2.5 36.5 32 -12.6 9.3
12:55 1019 30.09 848 25.04 2.1 35.8 32 -13 8.7
13:00 1019 30.09 848 25.04 1.7 35.1 30 -14.1 6.6
13:05 1018 30.06 848 25.04 1.8 35.2 31 -13.8 7.1
13:10 1018 30.06 848 25.04 2.3 36.1 32 -13 8.6
13:15 1018 30.06 848 25.04 2.8 37.1 29 -13.4 7.8
13:20 1018 30.06 847 25.01 2.7 36.9 29 -13.6 7.5
13:25 1018 30.06 847 25.01 3 37.5 31 -12.7 9.1
13:30 1018 30.06 847 25.01 3.6 38.6 29 -12.8 9
13:35 1018 30.06 847 25.01 3.8 38.8 30 -12.2 10
13:40 1018 30.06 847 25.01 4 39.3 28 -12.9 8.7
13:45 1018 30.06 847 25.01 3.3 37.9 31 -12.4 9.6
13:50 1018 30.06 847 25.01 3 37.3 30 -12.9 8.8
13:55 1018 30.06 847 25.01 2.3 36.1 32 -12.9 8.8
14:00 1018 30.06 847 25.01 1.5 34.7 34 -12.7 9.1
14:05 1018 30.06 847 25.01 1.4 34.5 36 -12.3 9.9
14:10 1018 30.06 847 25.01 1.4 34.5 38 -11.3 11.7
14:15 1018 30.06 847 25.01 1.3 34.3 35 -12.4 9.6
14:20 1018 30.06 847 25.01 1.3 34.4 34 -12.7 9.1
14:25 1018 30.06 847 25.01 1.7 35 38 -11.3 11.6
14:30 1018 30.06 847 25.01 2.3 36.2 35 -11.6 11.2
14:35 1018 30.06 847 25.01 2.3 36.1 36 -11.2 11.8
14:40 1018 30.06 847 25.01 1.9 35.4 38 -10.9 12.4
14:45 1018 30.06 847 25.01 3.3 38 34 -11.1 11.9
14:50 1017 30.03 847 25.01 3.7 38.7 33 -11.1 12
14:55 1017 30.03 847 25.01 4 39.2 33 -10.9 12.3
15:00 1017 30.03 847 25.01 3.9 39.1 32 -11.2 11.8
15:05 1017 30.03 847 25.01 3.1 37.6 35 -11.1 12.1
15:10 1017 30.03 847 25.01 3.2 37.7 35 -10.8 12.6
15:15 1017 30.03 847 25.01 3.1 37.6 35 -11 12.2
15:20 1017 30.03 847 25.01 3.1 37.5 35 -11 12.2
15:25 1018 30.06 847 25.01 3 37.5 36 -10.6 12.9
15:30 1018 30.06 847 25.01 3 37.5 39 -9.7 14.6
15:35 1017 30.03 847 25.01 2.8 37.1 41 -9.1 15.6
15:40 1017 30.03 847 25.01 1.8 35.2 41 -10 14
15:45 1017 30.03 847 25.01 2.4 36.3 39 -10.3 13.4
15:50 1017 30.03 847 25.01 2.7 36.9 36 -11 12.3
15:55 1017 30.03 847 25.01 2.7 36.8 36 -11.2 11.9
16:00 1017 30.03 847 25.01 3.3 38 36 -10.2 13.6
16:05 1017 30.03 846 24.98 3.4 38.1 37 -9.9 14.2
16:10 1017 30.03 846 24.98 2.7 36.9 33 -12.2 10.1
16:15 1017 30.03 846 24.98 2.1 35.7 34 -12.3 9.8
16:20 1017 30.03 846 24.98 1.9 35.4 38 -11 12.2
16:25 1017 30.03 846 24.98 1.9 35.4 37 -11.4 11.6
16:30 1017 30.03 846 24.98 1.6 35 37 -11.5 11.4
16:35 1017 30.03 846 24.98 1.7 35 39 -10.8 12.5
16:40 1017 30.03 846 24.98 1.7 35.1 40 -10.4 13.3
16:45 1017 30.03 846 24.98 1.7 35.1 42 -9.9 14.2
16:50 1017 30.03 846 24.98 1.7 35 43 -9.6 14.7
16:55 1017 30.03 846 24.98 1.7 35.1 43 -9.5 14.8
17:00 1017 30.03 846 24.98 1.6 34.8 44 -9.5 14.9
17:05 1017 30.03 846 24.98 1.7 35 43 -9.7 14.6
17:10 1017 30.03 846 24.98 1 33.8 46 -9.3 15.2
17:15 1017 30.03 846 24.98 0.2 32.4 48 -9.5 14.9
17:20 1017 30.03 846 24.98 0.2 32.4 50 -9.1 15.6
17:25 1017 30.03 846 24.98 0.2 32.3 50 -9 15.8
17:30 1017 30.03 846 24.98 0.2 32.3 50 -9 15.9
17:35 1017 30.03 846 24.98 0.3 32.5 49 -9.1 15.6
17:40 1017 30.03 846 24.98 0.5 32.8 50 -8.8 16.2
17:45 1017 30.03 846 24.98 0.3 32.6 49 -9.1 15.6
17:50 1017 30.03 846 24.98 0.1 32.2 46 -10.1 13.8
17:55 1017 30.03 846 24.98 0.2 32.3 49 -9.3 15.2
18:00 1017 30.03 846 24.98 0.2 32.3 50 -9 15.7
18:05 1017 30.03 846 24.98 0.6 33.1 51 -8.4 16.8
18:10 1017 30.03 846 24.98 0.5 32.9 52 -8.2 17.3
18:15 1017 30.03 846 24.98 0.3 32.6 54 -8 17.5
18:20 1017 30.03 846 24.98 -0.2 31.6 55 -8.3 17
18:25 1017 30.03 846 24.98 -0.8 30.5 57 -8.4 16.9
18:30 1017 30.03 846 24.98 -0.9 30.3 56 -8.7 16.4
18:35 1017 30.03 846 24.98 -0.7 30.7 57 -8.2 17.2
18:40 1017 30.03 846 24.98 -0.9 30.4 59 -7.9 17.9
18:45 1017 30.03 846 24.98 -0.8 30.6 59 -7.9 17.8
18:50 1017 30.03 846 24.98 -1 30.2 58 -8.2 17.2
18:55 1017 30.03 846 24.98 -1.1 30 57 -8.7 16.4
19:00 1017 30.03 846 24.98 -1.1 30 58 -8.4 16.9
19:05 1017 30.03 846 24.98 -1 30.2 58 -8.3 17
19:10 1017 30.03 846 24.98 -0.8 30.6 57 -8.3 17
19:15 1017 30.03 846 24.98 -0.7 30.8 55 -8.7 16.3
19:20 1017 30.03 846 24.98 -0.6 30.9 56 -8.3 17
19:25 1017 30.03 846 24.98 -0.4 31.3 55 -8.2 17.2
19:30 1017 30.03 846 24.98 -0.2 31.6 56 -8 17.6
19:35 1017 30.03 846 24.98 -0.4 31.2 59 -7.5 18.5
19:40 1017 30.03 846 24.98 -0.7 30.7 60 -7.6 18.4
19:45 1017 30.03 846 24.98 -1 30.2 61 -7.7 18.2
19:50 1017 30.03 846 24.98 -1.1 30.1 61 -7.7 18.2
19:55 1017 30.03 846 24.98 -1.1 30.1 61 -7.6 18.3
20:00 1017 30.03 846 24.98 -0.9 30.3 62 -7.3 18.8
20:05 1017 30.03 846 24.98 -0.7 30.7 62 -7.1 19.2
20:10 1017 30.03 846 24.98 -0.6 31 63 -6.9 19.6
20:15 1017 30.03 846 24.98 -1 30.2 65 -6.7 19.9
20:20 1017 30.03 846 24.98 -1.4 29.5 68 -6.6 20.1
20:25 1017 30.03 846 24.98 -1.6 29.1 69 -6.5 20.3
20:30 1017 30.03 846 24.98 -1.6 29.2 70 -6.3 20.7
20:35 1017 30.03 846 24.98 -1.6 29.2 71 -6.3 20.7
20:40 1017 30.03 846 24.98 -1.7 29 71 -6.2 20.8
20:45 1017 30.03 847 25.01 -1.7 29 71 -6.2 20.8
20:50 1017 30.03 847 25.01 -1.6 29 71 -6.2 20.9
20:55 1017 30.03 847 25.01 -1.6 29.1 72 -6.1 21.1
21:00 1017 30.03 847 25.01 -1.5 29.2 72 -6 21.2
21:05 1018 30.06 847 25.01 -1.5 29.3 71 -6.1 21
21:10 1018 30.06 847 25.01 -1.4 29.5 71 -5.9 21.4
21:15 1018 30.06 847 25.01 -1.3 29.6 71 -6 21.2
21:20 1018 30.06 847 25.01 -1.3 29.7 70 -6 21.1
21:25 1018 30.06 847 25.01 -1.4 29.4 71 -6.1 21
21:30 1018 30.06 847 25.01 -1.6 29.1 70 -6.4 20.6
21:35 1018 30.06 847 25.01 -1.7 28.9 69 -6.6 20.1
21:40 1018 30.06 847 25.01 -1.7 28.9 69 -6.7 19.9
21:45 1018 30.06 847 25.01 -1.7 29 67 -6.9 19.5
21:50 1018 30.06 847 25.01 -1.5 29.3 67 -6.9 19.6
21:55 1018 30.06 847 25.01 -1.4 29.5 65 -7.1 19.2
22:00 1018 30.06 847 25.01 -1.3 29.6 64 -7.2 19
22:05 1018 30.06 847 25.01 -1.4 29.5 64 -7.4 18.7
22:10 1018 30.06 847 25.01 -1.4 29.5 64 -7.3 18.9
22:15 1018 30.06 847 25.01 -1.4 29.4 64 -7.3 18.8
22:20 1018 30.06 847 25.01 -1.6 29.1 65 -7.3 18.8
22:25 1018 30.06 847 25.01 -1.6 29.1 65 -7.3 18.8
22:30 1018 30.06 847 25.01 -1.7 28.9 66 -7.2 19
22:35 1018 30.06 847 25.01 -1.8 28.7 67 -7.2 19
22:40 1018 30.06 847 25.01 -2 28.5 67 -7.2 19
22:45 1018 30.06 847 25.01 -2 28.4 68 -7.2 19.1
22:50 1018 30.06 847 25.01 -2 28.4 68 -7.1 19.2
22:55 1018 30.06 847 25.01 -2.2 28.1 69 -7.2 19.1
23:00 1018 30.06 847 25.01 -2.2 28 69 -7.2 19
23:05 1018 30.06 847 25.01 -2.2 28 69 -7.3 18.9
23:10 1018 30.06 847 25.01 -2.2 28 68 -7.3 18.9
23:15 1018 30.06 847 25.01 -2.2 28 68 -7.3 18.8
23:20 1018 30.06 847 25.01 -2.3 27.8 68 -7.5 18.6
23:25 1018 30.06 847 25.01 -2.3 27.8 67 -7.6 18.4
23:30 1018 30.06 847 25.01 -2.3 27.9 66 -7.9 17.8
23:35 1018 30.06 847 25.01 -2.1 28.3 64 -8.1 17.5
23:40 1018 30.06 847 25.01 -2 28.4 63 -8.1 17.5
23:45 1018 30.06 847 25.01 -2.1 28.3 64 -7.9 17.8
23:50 1018 30.06 847 25.01 -2.3 27.9 67 -7.6 18.2
23:55 1018 30.06 847 25.01 -2.4 27.6 68 -7.5 18.4
24:00 1018 30.06 847 25.01 -2.7 27.2 68 -7.8 17.9